KDRT/DRT METAR and TAF weather

Enter ICAO airport designator
Station Type Date Time Source
KDRT METAR 2021/05/13 05:53 UTC NOAA

KDRT 130553Z AUTO 05010KT 10SM BKN050 OVC055 20/12 A3024 RMK AO2 SLP229 T02000117 10233 20200 402330189 51015


Station Type Date Time Source
KDRT Decoded METAR 2021/05/13 05:53 UTC NOAA

DEL RIO INTERNATIONAL AIRPORT, TX, United States (KDRT) 29-22N 100-55W 313M
May 13, 2021 - 01:53 AM EDT / 2021.05.13 0553 UTC
Wind: from the NE (050 degrees) at 12 MPH (10 KT):0
Visibility: 10 mile(s):0
Sky conditions: overcast
Temperature: 68.0 F (20.0 C)
Dew Point: 53.1 F (11.7 C)
Relative Humidity: 58%
Pressure (altimeter): 30.24 in. Hg (1024 hPa)
Pressure tendency: 0.04 inches (1.5 hPa) higher than three hours ago
ob: KDRT 130553Z AUTO 05010KT 10SM BKN050 OVC055 20/12 A3024 RMK AO2 SLP229 T02000117 10233 20200 402330189 51015
cycle: 6

Station Type Date Time Source
KDRT TAF 2021/05/13 06:30 UTC NOAA

TAF KDRT 130529Z 1306/1406 VRB04KT P6SM OVC040
FM131000 08006KT P6SM BKN022
FM131700 14008KT P6SM BKN040

Example: see airport list